sensor_id;sensor_type;location;lat;lon;timestamp;P1;durP1;ratioP1;P2;durP2;ratioP2
60700;SDS011;46541;49.894;10.886;2023-08-01T00:01:47;8.57;;;4.57;;
60700;SDS011;46541;49.894;10.886;2023-08-01T00:04:14;7.53;;;4.00;;
60700;SDS011;46541;49.894;10.886;2023-08-01T00:06:42;7.32;;;4.10;;
60700;SDS011;46541;49.894;10.886;2023-08-01T00:09:09;7.45;;;3.70;;
60700;SDS011;46541;49.894;10.886;2023-08-01T00:11:36;6.30;;;3.80;;
60700;SDS011;46541;49.894;10.886;2023-08-01T00:14:02;10.65;;;4.25;;
60700;SDS011;46541;49.894;10.886;2023-08-01T00:16:29;7.03;;;3.92;;
60700;SDS011;46541;49.894;10.886;2023-08-01T00:18:57;7.30;;;4.38;;
60700;SDS011;46541;49.894;10.886;2023-08-01T00:21:23;8.75;;;4.15;;
60700;SDS011;46541;49.894;10.886;2023-08-01T00:23:50;8.20;;;3.80;;
60700;SDS011;46541;49.894;10.886;2023-08-01T00:26:18;5.20;;;3.83;;
60700;SDS011;46541;49.894;10.886;2023-08-01T00:28:44;10.50;;;4.22;;
60700;SDS011;46541;49.894;10.886;2023-08-01T00:31:11;6.05;;;4.30;;
60700;SDS011;46541;49.894;10.886;2023-08-01T00:33:38;5.13;;;3.75;;
60700;SDS011;46541;49.894;10.886;2023-08-01T00:36:05;8.05;;;4.53;;
60700;SDS011;46541;49.894;10.886;2023-08-01T00:38:36;7.40;;;3.58;;
60700;SDS011;46541;49.894;10.886;2023-08-01T00:41:03;7.10;;;4.13;;
60700;SDS011;46541;49.894;10.886;2023-08-01T00:43:30;5.05;;;3.55;;
60700;SDS011;46541;49.894;10.886;2023-08-01T00:45:58;9.38;;;4.65;;
60700;SDS011;46541;49.894;10.886;2023-08-01T00:48:27;10.60;;;4.10;;
60700;SDS011;46541;49.894;10.886;2023-08-01T00:50:56;7.82;;;4.15;;
60700;SDS011;46541;49.894;10.886;2023-08-01T00:53:25;7.90;;;4.43;;
60700;SDS011;46541;49.894;10.886;2023-08-01T00:55:52;7.75;;;4.30;;
60700;SDS011;46541;49.894;10.886;2023-08-01T00:58:20;7.30;;;4.38;;
60700;SDS011;46541;49.894;10.886;2023-08-01T01:00:47;6.60;;;4.45;;
60700;SDS011;46541;49.894;10.886;2023-08-01T01:03:15;8.32;;;4.25;;
60700;SDS011;46541;49.894;10.886;2023-08-01T01:08:29;5.72;;;3.70;;
60700;SDS011;46541;49.894;10.886;2023-08-01T01:10:56;7.20;;;4.18;;
60700;SDS011;46541;49.894;10.886;2023-08-01T01:13:23;5.20;;;3.90;;
60700;SDS011;46541;49.894;10.886;2023-08-01T01:15:50;6.43;;;4.07;;
60700;SDS011;46541;49.894;10.886;2023-08-01T01:18:16;11.23;;;4.88;;
60700;SDS011;46541;49.894;10.886;2023-08-01T01:20:43;9.75;;;4.40;;
60700;SDS011;46541;49.894;10.886;2023-08-01T01:23:10;8.35;;;4.03;;
60700;SDS011;46541;49.894;10.886;2023-08-01T01:25:38;8.27;;;4.60;;
60700;SDS011;46541;49.894;10.886;2023-08-01T01:28:06;8.98;;;5.10;;
60700;SDS011;46541;49.894;10.886;2023-08-01T01:30:34;7.63;;;4.55;;
60700;SDS011;46541;49.894;10.886;2023-08-01T01:33:02;7.53;;;3.72;;
60700;SDS011;46541;49.894;10.886;2023-08-01T01:35:32;9.40;;;4.32;;
60700;SDS011;46541;49.894;10.886;2023-08-01T01:38:01;6.60;;;4.10;;
60700;SDS011;46541;49.894;10.886;2023-08-01T01:40:30;7.45;;;4.50;;
60700;SDS011;46541;49.894;10.886;2023-08-01T01:42:58;8.73;;;5.00;;
60700;SDS011;46541;49.894;10.886;2023-08-01T01:45:26;6.60;;;4.57;;
60700;SDS011;46541;49.894;10.886;2023-08-01T01:47:53;9.82;;;4.47;;
60700;SDS011;46541;49.894;10.886;2023-08-01T01:50:20;7.82;;;4.07;;
60700;SDS011;46541;49.894;10.886;2023-08-01T01:52:47;11.10;;;4.75;;
60700;SDS011;46541;49.894;10.886;2023-08-01T01:55:13;12.90;;;5.07;;
60700;SDS011;46541;49.894;10.886;2023-08-01T01:57:40;8.18;;;4.93;;
60700;SDS011;46541;49.894;10.886;2023-08-01T02:00:07;7.30;;;4.18;;
60700;SDS011;46541;49.894;10.886;2023-08-01T02:02:36;8.13;;;4.40;;
60700;SDS011;46541;49.894;10.886;2023-08-01T02:05:03;9.02;;;4.68;;
60700;SDS011;46541;49.894;10.886;2023-08-01T02:07:30;8.55;;;4.97;;
60700;SDS011;46541;49.894;10.886;2023-08-01T02:09:58;8.32;;;4.10;;
60700;SDS011;46541;49.894;10.886;2023-08-01T02:12:24;7.00;;;4.68;;
60700;SDS011;46541;49.894;10.886;2023-08-01T02:14:51;7.90;;;4.47;;
60700;SDS011;46541;49.894;10.886;2023-08-01T02:17:18;7.43;;;4.80;;
60700;SDS011;46541;49.894;10.886;2023-08-01T02:19:44;6.38;;;4.65;;
60700;SDS011;46541;49.894;10.886;2023-08-01T02:22:11;6.30;;;4.90;;
60700;SDS011;46541;49.894;10.886;2023-08-01T02:24:38;9.82;;;4.57;;
60700;SDS011;46541;49.894;10.886;2023-08-01T02:27:05;12.25;;;5.55;;
60700;SDS011;46541;49.894;10.886;2023-08-01T02:29:32;11.52;;;4.78;;
60700;SDS011;46541;49.894;10.886;2023-08-01T02:31:59;11.07;;;5.47;;
60700;SDS011;46541;49.894;10.886;2023-08-01T02:34:25;10.43;;;5.68;;
60700;SDS011;46541;49.894;10.886;2023-08-01T02:36:52;11.40;;;5.32;;
60700;SDS011;46541;49.894;10.886;2023-08-01T02:39:19;8.98;;;4.53;;
60700;SDS011;46541;49.894;10.886;2023-08-01T02:41:46;6.97;;;4.68;;
60700;SDS011;46541;49.894;10.886;2023-08-01T02:44:13;8.90;;;5.50;;
60700;SDS011;46541;49.894;10.886;2023-08-01T02:46:40;6.82;;;4.65;;
60700;SDS011;46541;49.894;10.886;2023-08-01T02:49:07;8.45;;;4.88;;
60700;SDS011;46541;49.894;10.886;2023-08-01T02:51:34;9.35;;;5.72;;
60700;SDS011;46541;49.894;10.886;2023-08-01T02:54:01;12.80;;;5.07;;
60700;SDS011;46541;49.894;10.886;2023-08-01T02:56:27;10.07;;;4.75;;
60700;SDS011;46541;49.894;10.886;2023-08-01T02:58:54;7.68;;;5.05;;
60700;SDS011;46541;49.894;10.886;2023-08-01T03:01:21;7.57;;;4.45;;
60700;SDS011;46541;49.894;10.886;2023-08-01T03:03:48;9.98;;;4.70;;
60700;SDS011;46541;49.894;10.886;2023-08-01T03:06:15;7.78;;;5.03;;
60700;SDS011;46541;49.894;10.886;2023-08-01T03:08:43;8.50;;;4.55;;
60700;SDS011;46541;49.894;10.886;2023-08-01T03:11:10;8.85;;;4.47;;
60700;SDS011;46541;49.894;10.886;2023-08-01T03:13:37;6.30;;;4.45;;
60700;SDS011;46541;49.894;10.886;2023-08-01T03:16:03;6.07;;;4.25;;
60700;SDS011;46541;49.894;10.886;2023-08-01T03:18:31;12.25;;;5.35;;
60700;SDS011;46541;49.894;10.886;2023-08-01T03:20:57;9.55;;;4.63;;
60700;SDS011;46541;49.894;10.886;2023-08-01T03:23:24;8.52;;;4.53;;
60700;SDS011;46541;49.894;10.886;2023-08-01T03:25:51;8.30;;;4.63;;
60700;SDS011;46541;49.894;10.886;2023-08-01T03:28:18;9.23;;;4.72;;
60700;SDS011;46541;49.894;10.886;2023-08-01T03:30:44;10.32;;;4.50;;
60700;SDS011;46541;49.894;10.886;2023-08-01T03:33:12;7.72;;;4.32;;
60700;SDS011;46541;49.894;10.886;2023-08-01T03:35:38;7.20;;;3.95;;
60700;SDS011;46541;49.894;10.886;2023-08-01T03:38:05;8.43;;;4.72;;
60700;SDS011;46541;49.894;10.886;2023-08-01T03:40:32;8.13;;;4.47;;
60700;SDS011;46541;49.894;10.886;2023-08-01T03:42:59;6.43;;;4.22;;
60700;SDS011;46541;49.894;10.886;2023-08-01T03:45:26;9.07;;;5.03;;
60700;SDS011;46541;49.894;10.886;2023-08-01T03:47:52;7.80;;;4.43;;
60700;SDS011;46541;49.894;10.886;2023-08-01T03:50:19;9.75;;;4.65;;
60700;SDS011;46541;49.894;10.886;2023-08-01T03:52:46;8.70;;;4.38;;
60700;SDS011;46541;49.894;10.886;2023-08-01T03:55:13;9.57;;;4.95;;
60700;SDS011;46541;49.894;10.886;2023-08-01T03:57:40;8.93;;;4.35;;
60700;SDS011;46541;49.894;10.886;2023-08-01T04:00:07;7.30;;;4.43;;
60700;SDS011;46541;49.894;10.886;2023-08-01T04:02:40;8.95;;;4.53;;
60700;SDS011;46541;49.894;10.886;2023-08-01T04:05:11;6.32;;;4.45;;
60700;SDS011;46541;49.894;10.886;2023-08-01T04:07:38;7.95;;;4.70;;
60700;SDS011;46541;49.894;10.886;2023-08-01T04:10:05;10.00;;;4.15;;
60700;SDS011;46541;49.894;10.886;2023-08-01T04:12:33;6.30;;;4.05;;
60700;SDS011;46541;49.894;10.886;2023-08-01T04:15:00;7.45;;;4.15;;
60700;SDS011;46541;49.894;10.886;2023-08-01T04:17:27;7.55;;;4.75;;
60700;SDS011;46541;49.894;10.886;2023-08-01T04:19:56;10.00;;;4.18;;
60700;SDS011;46541;49.894;10.886;2023-08-01T04:22:22;8.80;;;4.28;;
60700;SDS011;46541;49.894;10.886;2023-08-01T04:24:49;10.07;;;4.93;;
60700;SDS011;46541;49.894;10.886;2023-08-01T04:27:17;10.40;;;5.25;;
60700;SDS011;46541;49.894;10.886;2023-08-01T04:29:43;8.63;;;5.32;;
60700;SDS011;46541;49.894;10.886;2023-08-01T04:32:10;7.90;;;4.47;;
60700;SDS011;46541;49.894;10.886;2023-08-01T04:34:43;8.55;;;5.07;;
60700;SDS011;46541;49.894;10.886;2023-08-01T04:37:09;6.50;;;4.40;;
60700;SDS011;46541;49.894;10.886;2023-08-01T04:39:37;9.40;;;5.30;;
60700;SDS011;46541;49.894;10.886;2023-08-01T04:42:04;8.95;;;3.95;;
60700;SDS011;46541;49.894;10.886;2023-08-01T04:44:31;6.88;;;3.90;;
60700;SDS011;46541;49.894;10.886;2023-08-01T04:46:58;9.15;;;4.38;;
60700;SDS011;46541;49.894;10.886;2023-08-01T04:49:25;8.48;;;4.35;;
60700;SDS011;46541;49.894;10.886;2023-08-01T04:51:52;7.25;;;4.40;;
60700;SDS011;46541;49.894;10.886;2023-08-01T04:54:19;8.77;;;4.22;;
60700;SDS011;46541;49.894;10.886;2023-08-01T04:56:45;8.35;;;4.55;;
60700;SDS011;46541;49.894;10.886;2023-08-01T04:59:12;8.48;;;4.05;;
60700;SDS011;46541;49.894;10.886;2023-08-01T05:01:39;9.77;;;4.35;;
60700;SDS011;46541;49.894;10.886;2023-08-01T05:04:06;6.90;;;3.95;;
60700;SDS011;46541;49.894;10.886;2023-08-01T05:06:33;5.75;;;4.25;;
60700;SDS011;46541;49.894;10.886;2023-08-01T05:09:00;7.22;;;4.55;;
60700;SDS011;46541;49.894;10.886;2023-08-01T05:11:26;9.02;;;5.57;;
60700;SDS011;46541;49.894;10.886;2023-08-01T05:13:53;6.45;;;4.38;;
60700;SDS011;46541;49.894;10.886;2023-08-01T05:16:20;12.02;;;5.88;;
60700;SDS011;46541;49.894;10.886;2023-08-01T05:18:47;9.57;;;5.15;;
60700;SDS011;46541;49.894;10.886;2023-08-01T05:21:14;8.05;;;4.90;;
60700;SDS011;46541;49.894;10.886;2023-08-01T05:23:41;7.40;;;4.38;;
60700;SDS011;46541;49.894;10.886;2023-08-01T05:26:07;8.70;;;4.07;;
60700;SDS011;46541;49.894;10.886;2023-08-01T05:28:34;8.93;;;4.13;;
60700;SDS011;46541;49.894;10.886;2023-08-01T05:31:01;7.72;;;3.83;;
60700;SDS011;46541;49.894;10.886;2023-08-01T05:33:28;6.63;;;3.97;;
60700;SDS011;46541;49.894;10.886;2023-08-01T05:35:55;7.30;;;3.83;;
60700;SDS011;46541;49.894;10.886;2023-08-01T05:38:21;7.57;;;3.85;;
60700;SDS011;46541;49.894;10.886;2023-08-01T05:40:48;4.97;;;3.45;;
60700;SDS011;46541;49.894;10.886;2023-08-01T05:43:15;4.95;;;3.67;;
60700;SDS011;46541;49.894;10.886;2023-08-01T05:45:42;6.65;;;3.80;;
60700;SDS011;46541;49.894;10.886;2023-08-01T05:48:09;5.93;;;3.55;;
60700;SDS011;46541;49.894;10.886;2023-08-01T05:50:36;7.50;;;3.70;;
60700;SDS011;46541;49.894;10.886;2023-08-01T05:53:04;4.47;;;3.28;;
60700;SDS011;46541;49.894;10.886;2023-08-01T05:55:31;6.10;;;3.42;;
60700;SDS011;46541;49.894;10.886;2023-08-01T05:57:58;5.75;;;3.20;;
60700;SDS011;46541;49.894;10.886;2023-08-01T06:00:26;7.07;;;3.28;;
60700;SDS011;46541;49.894;10.886;2023-08-01T06:02:53;9.20;;;3.70;;
60700;SDS011;46541;49.894;10.886;2023-08-01T06:05:20;8.75;;;3.63;;
60700;SDS011;46541;49.894;10.886;2023-08-01T06:07:47;5.70;;;3.38;;
60700;SDS011;46541;49.894;10.886;2023-08-01T06:10:14;6.35;;;3.03;;
60700;SDS011;46541;49.894;10.886;2023-08-01T06:12:41;5.22;;;3.35;;
60700;SDS011;46541;49.894;10.886;2023-08-01T06:15:08;6.13;;;2.92;;
60700;SDS011;46541;49.894;10.886;2023-08-01T06:17:35;5.10;;;3.20;;
60700;SDS011;46541;49.894;10.886;2023-08-01T06:20:02;5.35;;;3.00;;
60700;SDS011;46541;49.894;10.886;2023-08-01T06:22:30;7.60;;;4.15;;
60700;SDS011;46541;49.894;10.886;2023-08-01T06:24:57;7.43;;;5.00;;
60700;SDS011;46541;49.894;10.886;2023-08-01T06:27:24;8.23;;;2.80;;
60700;SDS011;46541;49.894;10.886;2023-08-01T06:29:51;5.43;;;3.22;;
60700;SDS011;46541;49.894;10.886;2023-08-01T06:32:18;6.70;;;4.68;;
60700;SDS011;46541;49.894;10.886;2023-08-01T06:34:45;7.68;;;3.58;;
60700;SDS011;46541;49.894;10.886;2023-08-01T06:37:11;3.85;;;2.63;;
60700;SDS011;46541;49.894;10.886;2023-08-01T06:39:38;8.30;;;3.33;;
60700;SDS011;46541;49.894;10.886;2023-08-01T06:42:05;6.40;;;3.40;;
60700;SDS011;46541;49.894;10.886;2023-08-01T06:44:32;6.38;;;3.92;;
60700;SDS011;46541;49.894;10.886;2023-08-01T06:46:59;13.13;;;4.93;;
60700;SDS011;46541;49.894;10.886;2023-08-01T06:49:26;5.35;;;3.40;;
60700;SDS011;46541;49.894;10.886;2023-08-01T06:51:53;6.78;;;4.30;;
60700;SDS011;46541;49.894;10.886;2023-08-01T06:54:20;5.53;;;3.70;;
60700;SDS011;46541;49.894;10.886;2023-08-01T06:56:46;9.65;;;5.25;;
60700;SDS011;46541;49.894;10.886;2023-08-01T06:59:14;6.97;;;4.20;;
60700;SDS011;46541;49.894;10.886;2023-08-01T07:01:41;9.52;;;5.85;;
60700;SDS011;46541;49.894;10.886;2023-08-01T07:04:10;10.43;;;6.35;;
60700;SDS011;46541;49.894;10.886;2023-08-01T07:06:37;5.13;;;3.63;;
60700;SDS011;46541;49.894;10.886;2023-08-01T07:09:05;8.43;;;4.03;;
60700;SDS011;46541;49.894;10.886;2023-08-01T07:11:32;9.75;;;4.30;;
60700;SDS011;46541;49.894;10.886;2023-08-01T07:13:59;6.03;;;4.53;;
60700;SDS011;46541;49.894;10.886;2023-08-01T07:16:26;5.22;;;3.28;;
60700;SDS011;46541;49.894;10.886;2023-08-01T07:18:54;6.53;;;3.38;;
60700;SDS011;46541;49.894;10.886;2023-08-01T07:21:21;5.18;;;2.70;;
60700;SDS011;46541;49.894;10.886;2023-08-01T07:23:48;5.03;;;2.90;;
60700;SDS011;46541;49.894;10.886;2023-08-01T07:26:15;7.00;;;2.97;;
60700;SDS011;46541;49.894;10.886;2023-08-01T07:28:42;4.70;;;3.03;;
60700;SDS011;46541;49.894;10.886;2023-08-01T07:31:09;5.93;;;3.38;;
60700;SDS011;46541;49.894;10.886;2023-08-01T07:33:36;6.20;;;3.35;;
60700;SDS011;46541;49.894;10.886;2023-08-01T07:36:03;5.35;;;3.35;;
60700;SDS011;46541;49.894;10.886;2023-08-01T07:38:30;5.60;;;2.85;;
60700;SDS011;46541;49.894;10.886;2023-08-01T07:41:03;4.15;;;3.33;;
60700;SDS011;46541;49.894;10.886;2023-08-01T07:43:31;6.60;;;3.03;;
60700;SDS011;46541;49.894;10.886;2023-08-01T07:45:58;5.57;;;3.28;;
60700;SDS011;46541;49.894;10.886;2023-08-01T07:48:25;4.32;;;3.10;;
60700;SDS011;46541;49.894;10.886;2023-08-01T07:50:53;4.65;;;2.80;;
60700;SDS011;46541;49.894;10.886;2023-08-01T07:53:19;10.32;;;3.42;;
60700;SDS011;46541;49.894;10.886;2023-08-01T07:55:46;5.40;;;3.22;;
60700;SDS011;46541;49.894;10.886;2023-08-01T07:58:13;6.18;;;3.28;;
60700;SDS011;46541;49.894;10.886;2023-08-01T08:00:40;4.22;;;3.10;;
60700;SDS011;46541;49.894;10.886;2023-08-01T08:03:06;4.80;;;3.33;;
60700;SDS011;46541;49.894;10.886;2023-08-01T08:05:34;7.72;;;3.70;;
60700;SDS011;46541;49.894;10.886;2023-08-01T08:08:04;5.78;;;3.50;;
60700;SDS011;46541;49.894;10.886;2023-08-01T08:10:32;7.28;;;3.65;;
60700;SDS011;46541;49.894;10.886;2023-08-01T08:12:59;8.20;;;3.25;;
60700;SDS011;46541;49.894;10.886;2023-08-01T08:15:26;6.93;;;3.65;;
60700;SDS011;46541;49.894;10.886;2023-08-01T08:17:53;4.72;;;3.40;;
60700;SDS011;46541;49.894;10.886;2023-08-01T08:20:20;8.15;;;4.03;;
60700;SDS011;46541;49.894;10.886;2023-08-01T08:22:46;5.68;;;3.60;;
60700;SDS011;46541;49.894;10.886;2023-08-01T08:25:13;6.40;;;3.72;;
60700;SDS011;46541;49.894;10.886;2023-08-01T08:27:40;6.55;;;3.90;;
60700;SDS011;46541;49.894;10.886;2023-08-01T08:30:07;10.77;;;4.22;;
60700;SDS011;46541;49.894;10.886;2023-08-01T08:32:35;6.68;;;3.85;;
60700;SDS011;46541;49.894;10.886;2023-08-01T08:35:02;7.00;;;4.00;;
60700;SDS011;46541;49.894;10.886;2023-08-01T08:37:29;9.93;;;4.45;;
60700;SDS011;46541;49.894;10.886;2023-08-01T08:39:56;9.18;;;4.85;;
60700;SDS011;46541;49.894;10.886;2023-08-01T08:42:23;6.75;;;4.03;;
60700;SDS011;46541;49.894;10.886;2023-08-01T08:44:54;5.35;;;3.17;;
60700;SDS011;46541;49.894;10.886;2023-08-01T08:47:24;7.63;;;3.60;;
60700;SDS011;46541;49.894;10.886;2023-08-01T08:49:52;5.60;;;3.55;;
60700;SDS011;46541;49.894;10.886;2023-08-01T08:52:24;8.77;;;4.47;;
60700;SDS011;46541;49.894;10.886;2023-08-01T08:54:51;6.88;;;3.47;;
60700;SDS011;46541;49.894;10.886;2023-08-01T08:57:19;7.70;;;4.10;;
60700;SDS011;46541;49.894;10.886;2023-08-01T08:59:47;8.00;;;3.90;;
60700;SDS011;46541;49.894;10.886;2023-08-01T09:02:14;6.38;;;3.55;;
60700;SDS011;46541;49.894;10.886;2023-08-01T09:04:43;7.93;;;4.10;;
60700;SDS011;46541;49.894;10.886;2023-08-01T09:07:10;8.43;;;3.63;;
60700;SDS011;46541;49.894;10.886;2023-08-01T09:09:39;7.10;;;3.45;;
60700;SDS011;46541;49.894;10.886;2023-08-01T09:12:06;6.78;;;3.50;;
60700;SDS011;46541;49.894;10.886;2023-08-01T09:14:35;5.68;;;4.20;;
60700;SDS011;46541;49.894;10.886;2023-08-01T09:17:06;5.45;;;4.05;;
60700;SDS011;46541;49.894;10.886;2023-08-01T09:19:34;6.80;;;4.47;;
60700;SDS011;46541;49.894;10.886;2023-08-01T09:22:01;6.05;;;4.32;;
60700;SDS011;46541;49.894;10.886;2023-08-01T09:24:35;7.85;;;4.40;;
60700;SDS011;46541;49.894;10.886;2023-08-01T09:27:02;7.13;;;3.70;;
60700;SDS011;46541;49.894;10.886;2023-08-01T09:29:34;7.72;;;4.35;;
60700;SDS011;46541;49.894;10.886;2023-08-01T09:32:11;7.18;;;4.25;;
60700;SDS011;46541;49.894;10.886;2023-08-01T09:34:40;4.85;;;3.95;;
60700;SDS011;46541;49.894;10.886;2023-08-01T09:37:08;21.75;;;12.50;;
60700;SDS011;46541;49.894;10.886;2023-08-01T09:39:34;7.05;;;3.42;;
60700;SDS011;46541;49.894;10.886;2023-08-01T09:42:01;2.88;;;2.28;;
60700;SDS011;46541;49.894;10.886;2023-08-01T09:44:29;5.88;;;3.80;;
60700;SDS011;46541;49.894;10.886;2023-08-01T09:47:04;5.47;;;3.30;;
60700;SDS011;46541;49.894;10.886;2023-08-01T09:49:33;5.18;;;3.60;;
60700;SDS011;46541;49.894;10.886;2023-08-01T09:52:02;3.58;;;2.75;;
60700;SDS011;46541;49.894;10.886;2023-08-01T09:54:29;4.93;;;2.67;;
60700;SDS011;46541;49.894;10.886;2023-08-01T09:56:56;3.58;;;2.25;;
60700;SDS011;46541;49.894;10.886;2023-08-01T09:59:24;4.75;;;3.40;;
60700;SDS011;46541;49.894;10.886;2023-08-01T10:01:53;5.53;;;2.53;;
60700;SDS011;46541;49.894;10.886;2023-08-01T10:04:29;2.53;;;1.88;;
60700;SDS011;46541;49.894;10.886;2023-08-01T10:07:00;3.40;;;1.75;;
60700;SDS011;46541;49.894;10.886;2023-08-01T10:12:01;7.75;;;4.88;;
60700;SDS011;46541;49.894;10.886;2023-08-01T10:14:29;5.78;;;3.40;;
60700;SDS011;46541;49.894;10.886;2023-08-01T10:16:57;3.83;;;2.58;;
60700;SDS011;46541;49.894;10.886;2023-08-01T10:19:25;4.07;;;2.70;;
60700;SDS011;46541;49.894;10.886;2023-08-01T10:21:52;3.95;;;2.03;;
60700;SDS011;46541;49.894;10.886;2023-08-01T10:24:21;39.45;;;3.38;;
60700;SDS011;46541;49.894;10.886;2023-08-01T10:26:50;2.97;;;1.73;;
60700;SDS011;46541;49.894;10.886;2023-08-01T10:29:17;2.47;;;1.13;;
60700;SDS011;46541;49.894;10.886;2023-08-01T10:31:53;3.90;;;0.90;;
60700;SDS011;46541;49.894;10.886;2023-08-01T10:34:21;1.65;;;1.20;;
60700;SDS011;46541;49.894;10.886;2023-08-01T10:36:55;1.27;;;0.77;;
60700;SDS011;46541;49.894;10.886;2023-08-01T10:39:23;2.08;;;1.15;;
60700;SDS011;46541;49.894;10.886;2023-08-01T10:42:01;2.33;;;1.20;;
60700;SDS011;46541;49.894;10.886;2023-08-01T10:44:29;1.80;;;1.05;;
60700;SDS011;46541;49.894;10.886;2023-08-01T10:46:58;1.98;;;1.35;;
60700;SDS011;46541;49.894;10.886;2023-08-01T10:49:34;33.58;;;2.25;;
60700;SDS011;46541;49.894;10.886;2023-08-01T10:52:21;1.73;;;1.10;;
60700;SDS011;46541;49.894;10.886;2023-08-01T10:55:02;3.20;;;1.35;;
60700;SDS011;46541;49.894;10.886;2023-08-01T10:57:30;2.53;;;1.30;;
60700;SDS011;46541;49.894;10.886;2023-08-01T10:59:58;2.45;;;1.40;;
60700;SDS011;46541;49.894;10.886;2023-08-01T11:02:28;1.95;;;1.33;;
60700;SDS011;46541;49.894;10.886;2023-08-01T11:04:57;1.45;;;1.35;;
60700;SDS011;46541;49.894;10.886;2023-08-01T11:07:25;3.88;;;1.40;;
60700;SDS011;46541;49.894;10.886;2023-08-01T11:10:06;4.82;;;1.52;;
60700;SDS011;46541;49.894;10.886;2023-08-01T11:12:41;2.25;;;1.67;;
60700;SDS011;46541;49.894;10.886;2023-08-01T11:15:10;3.03;;;1.23;;
60700;SDS011;46541;49.894;10.886;2023-08-01T11:17:38;3.92;;;1.45;;
60700;SDS011;46541;49.894;10.886;2023-08-01T11:20:10;2.40;;;1.13;;
60700;SDS011;46541;49.894;10.886;2023-08-01T11:22:38;1.95;;;1.20;;
60700;SDS011;46541;49.894;10.886;2023-08-01T11:25:32;2.80;;;1.35;;
60700;SDS011;46541;49.894;10.886;2023-08-01T11:28:06;2.35;;;1.08;;
60700;SDS011;46541;49.894;10.886;2023-08-01T11:30:35;1.92;;;1.20;;
60700;SDS011;46541;49.894;10.886;2023-08-01T11:33:02;3.38;;;1.45;;
60700;SDS011;46541;49.894;10.886;2023-08-01T11:35:40;2.55;;;1.20;;
60700;SDS011;46541;49.894;10.886;2023-08-01T11:38:07;4.28;;;1.70;;
60700;SDS011;46541;49.894;10.886;2023-08-01T11:40:34;1.30;;;0.90;;
60700;SDS011;46541;49.894;10.886;2023-08-01T11:43:01;2.95;;;1.83;;
60700;SDS011;46541;49.894;10.886;2023-08-01T11:45:28;4.07;;;1.20;;
60700;SDS011;46541;49.894;10.886;2023-08-01T11:47:55;2.22;;;1.35;;
60700;SDS011;46541;49.894;10.886;2023-08-01T11:50:22;1.95;;;1.23;;
60700;SDS011;46541;49.894;10.886;2023-08-01T11:52:50;2.63;;;1.38;;
60700;SDS011;46541;49.894;10.886;2023-08-01T11:55:18;3.42;;;1.25;;
60700;SDS011;46541;49.894;10.886;2023-08-01T11:57:56;3.53;;;1.43;;
60700;SDS011;46541;49.894;10.886;2023-08-01T12:00:25;3.63;;;1.55;;
60700;SDS011;46541;49.894;10.886;2023-08-01T12:03:05;2.58;;;1.08;;
60700;SDS011;46541;49.894;10.886;2023-08-01T12:05:39;3.30;;;1.58;;
60700;SDS011;46541;49.894;10.886;2023-08-01T12:08:14;5.25;;;1.52;;
60700;SDS011;46541;49.894;10.886;2023-08-01T12:10:42;1.83;;;1.27;;
60700;SDS011;46541;49.894;10.886;2023-08-01T12:13:21;1.83;;;1.05;;
60700;SDS011;46541;49.894;10.886;2023-08-01T12:15:49;3.75;;;1.13;;
60700;SDS011;46541;49.894;10.886;2023-08-01T12:18:24;1.30;;;1.08;;
60700;SDS011;46541;49.894;10.886;2023-08-01T12:20:55;2.10;;;1.23;;
60700;SDS011;46541;49.894;10.886;2023-08-01T12:23:22;1.45;;;1.30;;
60700;SDS011;46541;49.894;10.886;2023-08-01T12:25:49;7.75;;;1.40;;
60700;SDS011;46541;49.894;10.886;2023-08-01T12:28:16;1.55;;;1.27;;
60700;SDS011;46541;49.894;10.886;2023-08-01T12:30:43;1.17;;;0.90;;
60700;SDS011;46541;49.894;10.886;2023-08-01T12:33:10;1.20;;;0.95;;
60700;SDS011;46541;49.894;10.886;2023-08-01T12:35:40;1.58;;;1.05;;
60700;SDS011;46541;49.894;10.886;2023-08-01T12:38:08;2.47;;;1.20;;
60700;SDS011;46541;49.894;10.886;2023-08-01T12:40:35;1.50;;;1.17;;
60700;SDS011;46541;49.894;10.886;2023-08-01T12:43:02;3.08;;;1.20;;
60700;SDS011;46541;49.894;10.886;2023-08-01T12:45:29;3.50;;;1.10;;
60700;SDS011;46541;49.894;10.886;2023-08-01T12:47:56;1.60;;;1.10;;
60700;SDS011;46541;49.894;10.886;2023-08-01T12:50:23;2.25;;;1.02;;
60700;SDS011;46541;49.894;10.886;2023-08-01T12:52:50;2.17;;;1.02;;
60700;SDS011;46541;49.894;10.886;2023-08-01T12:55:16;1.23;;;0.90;;
60700;SDS011;46541;49.894;10.886;2023-08-01T12:57:45;1.50;;;1.20;;
60700;SDS011;46541;49.894;10.886;2023-08-01T13:00:12;1.35;;;1.10;;
60700;SDS011;46541;49.894;10.886;2023-08-01T13:02:39;1.45;;;1.10;;
60700;SDS011;46541;49.894;10.886;2023-08-01T13:05:06;2.47;;;1.98;;
60700;SDS011;46541;49.894;10.886;2023-08-01T13:07:33;1.95;;;0.95;;
60700;SDS011;46541;49.894;10.886;2023-08-01T13:10:00;1.58;;;1.10;;
60700;SDS011;46541;49.894;10.886;2023-08-01T13:12:27;3.15;;;1.00;;
60700;SDS011;46541;49.894;10.886;2023-08-01T13:14:54;1.45;;;0.95;;
60700;SDS011;46541;49.894;10.886;2023-08-01T13:17:40;1.45;;;1.10;;
60700;SDS011;46541;49.894;10.886;2023-08-01T13:20:07;2.00;;;0.85;;
60700;SDS011;46541;49.894;10.886;2023-08-01T13:22:34;1.23;;;1.13;;
60700;SDS011;46541;49.894;10.886;2023-08-01T13:25:01;1.30;;;1.00;;
60700;SDS011;46541;49.894;10.886;2023-08-01T13:27:29;2.42;;;1.10;;
60700;SDS011;46541;49.894;10.886;2023-08-01T13:29:56;3.33;;;1.27;;
60700;SDS011;46541;49.894;10.886;2023-08-01T13:32:23;2.13;;;1.00;;
60700;SDS011;46541;49.894;10.886;2023-08-01T13:34:51;0.90;;;0.90;;
60700;SDS011;46541;49.894;10.886;2023-08-01T13:37:18;1.10;;;1.00;;
60700;SDS011;46541;49.894;10.886;2023-08-01T13:39:45;1.48;;;0.70;;
60700;SDS011;46541;49.894;10.886;2023-08-01T13:42:12;3.58;;;1.20;;
60700;SDS011;46541;49.894;10.886;2023-08-01T13:44:40;1.55;;;1.27;;
60700;SDS011;46541;49.894;10.886;2023-08-01T13:47:07;1.20;;;1.00;;
60700;SDS011;46541;49.894;10.886;2023-08-01T13:49:34;2.00;;;1.40;;
60700;SDS011;46541;49.894;10.886;2023-08-01T13:52:01;3.20;;;1.50;;
60700;SDS011;46541;49.894;10.886;2023-08-01T13:54:29;2.80;;;1.10;;
60700;SDS011;46541;49.894;10.886;2023-08-01T13:56:56;1.98;;;1.15;;
60700;SDS011;46541;49.894;10.886;2023-08-01T13:59:23;2.63;;;1.10;;
60700;SDS011;46541;49.894;10.886;2023-08-01T14:01:50;1.95;;;1.40;;
60700;SDS011;46541;49.894;10.886;2023-08-01T14:04:17;5.35;;;1.52;;
60700;SDS011;46541;49.894;10.886;2023-08-01T14:06:43;2.63;;;1.02;;
60700;SDS011;46541;49.894;10.886;2023-08-01T14:09:10;2.38;;;0.90;;
60700;SDS011;46541;49.894;10.886;2023-08-01T14:11:38;1.67;;;0.90;;
60700;SDS011;46541;49.894;10.886;2023-08-01T14:14:05;1.83;;;0.93;;
60700;SDS011;46541;49.894;10.886;2023-08-01T14:16:32;1.85;;;0.98;;
60700;SDS011;46541;49.894;10.886;2023-08-01T14:18:59;2.33;;;1.30;;
60700;SDS011;46541;49.894;10.886;2023-08-01T14:21:26;2.33;;;1.00;;
60700;SDS011;46541;49.894;10.886;2023-08-01T14:23:53;1.65;;;1.05;;
60700;SDS011;46541;49.894;10.886;2023-08-01T14:26:19;1.13;;;0.85;;
60700;SDS011;46541;49.894;10.886;2023-08-01T14:28:46;3.20;;;0.98;;
60700;SDS011;46541;49.894;10.886;2023-08-01T14:31:14;3.67;;;0.90;;
60700;SDS011;46541;49.894;10.886;2023-08-01T14:33:40;1.38;;;0.98;;
60700;SDS011;46541;49.894;10.886;2023-08-01T14:36:08;1.90;;;1.15;;
60700;SDS011;46541;49.894;10.886;2023-08-01T14:38:38;1.40;;;1.13;;
60700;SDS011;46541;49.894;10.886;2023-08-01T14:41:06;2.78;;;0.90;;
60700;SDS011;46541;49.894;10.886;2023-08-01T14:43:47;2.78;;;1.65;;